Погода Новая Вескана неделю

Минская область, Белоруссия

25 - 31 мая
  • 25мая
    Сегодня
    +12°
    +26°
    Облачно с прояснениями
    ВремяПогодаТемператураВлажностьДавлениеВетер, м/сВероятность осадков
    00:00Ясно и безоблачно+17°C69 %754 мм3.8 м/с2 %
    03:00Небольшая облачность+15°C68 %754 мм4.4 м/с2 %
    06:00Облачно с прояснениями+14°C68 %754 мм4.0 м/с2 %
    09:00Облачно с прояснениями+19°C69 %754 мм3.8 м/с3 %
    12:00Облачно с прояснениями+23°C57 %754 мм4.1 м/с5 %
    15:00Облачно с прояснениями+24°C47 %753 мм5.5 м/с35 %
    18:00Облачно с прояснениями+22°C72 %753 мм5.3 м/с40 %
    21:00Облачно с прояснениями+18°C90 %753 мм1.3 м/с11 %
  • 26мая
    Воскресенье
    +11°
    +25°
    Ясно и безоблачно
    ВремяПогодаТемператураВлажностьДавлениеВетер, м/сВероятность осадков
    00:00Облачно с прояснениями+17°C66 %753 мм3.4 м/с2 %
    03:00Облачно с прояснениями+15°C58 %753 мм3.2 м/с6 %
    06:00Облачно с прояснениями+12°C70 %753 мм1.8 м/с3 %
    09:00Практически безоблачно+18°C59 %754 мм2.4 м/с2 %
    12:00Ясно и безоблачно+23°C34 %754 мм2.7 м/с2 %
    15:00Ясно и безоблачно+25°C34 %754 мм2.8 м/с2 %
    18:00Ясно и безоблачно+25°C36 %753 мм2.9 м/с2 %
    21:00Ясно и безоблачно+20°C55 %753 мм2.4 м/с2 %
  • 27мая
    Понедельник
    +13°
    +27°
    Облачно с прояснениями
    ВремяПогодаТемператураВлажностьДавлениеВетер, м/сВероятность осадков
    00:00Облачно с прояснениями+16°C68 %753 мм2.1 м/с2 %
    03:00Небольшая облачность+12°C84 %753 мм1.8 м/с2 %
    06:00Облачно с прояснениями+13°C78 %753 мм2.1 м/с2 %
    09:00Облачно с прояснениями+20°C59 %754 мм1.5 м/с2 %
    12:00Ясно и безоблачно+24°C37 %754 мм3.4 м/с2 %
    15:00Облачно с прояснениями+26°C35 %753 мм2.8 м/с2 %
    18:00Ясно и безоблачно+26°C37 %752 мм2.1 м/с4 %
    21:00Ясно и безоблачно+21°C64 %751 мм2.2 м/с2 %
  • 28мая
    Вторник
    +14°
    +27°
    Практически безоблачно
    ВремяПогодаТемператураВлажностьДавлениеВетер, м/сВероятность осадков
    00:00Ясно и безоблачно+16°C66 %751 мм2.4 м/с2 %
    03:00Ясно и безоблачно+14°C71 %751 мм2.0 м/с2 %
    06:00Ясно и безоблачно+14°C79 %750 мм2.5 м/с2 %
    09:00Ясно и безоблачно+21°C59 %750 мм2.5 м/с2 %
    12:00Ясно и безоблачно+25°C33 %750 мм3.7 м/с2 %
    15:00Практически безоблачно+26°C30 %749 мм3.3 м/с7 %
    18:00Ясно и безоблачно+26°C30 %748 мм2.9 м/с12 %
    21:00Ясно и безоблачно+23°C48 %747 мм3.4 м/с3 %
  • 29мая
    Среда
    +13°
    +28°
    Ясно и безоблачно
    ВремяПогодаТемператураВлажностьДавлениеВетер, м/сВероятность осадков
    00:00Ясно и безоблачно+18°C67 %747 мм3.1 м/с2 %
    03:00Практически безоблачно+15°C82 %747 мм2.8 м/с2 %
    06:00Облачно с прояснениями+14°C88 %746 мм3.1 м/с2 %
    09:00Облачно с прояснениями+20°C72 %746 мм1.8 м/с2 %
    12:00Практически безоблачно+26°C38 %746 мм3.0 м/с5 %
    15:00Ясно и безоблачно+27°C26 %745 мм4.7 м/с18 %
    18:00Ясно и безоблачно+27°C29 %744 мм3.6 м/с28 %
    21:00Небольшая облачность+22°C47 %744 мм2.4 м/с9 %
Мы используем cookies
Соглашаюсь